sensor_id;sensor_type;location;lat;lon;timestamp;P1;durP1;ratioP1;P2;durP2;ratioP2
8086;SDS011;4086;54.412;9.980;2023-07-08T00:01:27;17.17;;;15.37;;
8086;SDS011;4086;54.412;9.980;2023-07-08T00:03:55;19.17;;;17.37;;
8086;SDS011;4086;54.412;9.980;2023-07-08T00:06:22;19.03;;;17.23;;
8086;SDS011;4086;54.412;9.980;2023-07-08T00:08:51;18.60;;;16.77;;
8086;SDS011;4086;54.412;9.980;2023-07-08T00:11:17;20.37;;;18.40;;
8086;SDS011;4086;54.412;9.980;2023-07-08T00:13:44;20.50;;;18.60;;
8086;SDS011;4086;54.412;9.980;2023-07-08T00:16:11;20.17;;;18.17;;
8086;SDS011;4086;54.412;9.980;2023-07-08T00:18:39;18.00;;;16.30;;
8086;SDS011;4086;54.412;9.980;2023-07-08T00:21:09;18.17;;;16.27;;
8086;SDS011;4086;54.412;9.980;2023-07-08T00:23:39;17.20;;;15.70;;
8086;SDS011;4086;54.412;9.980;2023-07-08T00:26:09;15.03;;;13.63;;
8086;SDS011;4086;54.412;9.980;2023-07-08T00:28:37;20.47;;;18.57;;
8086;SDS011;4086;54.412;9.980;2023-07-08T00:31:04;20.10;;;18.20;;
8086;SDS011;4086;54.412;9.980;2023-07-08T00:33:33;18.20;;;16.60;;
8086;SDS011;4086;54.412;9.980;2023-07-08T00:35:59;18.90;;;17.20;;
8086;SDS011;4086;54.412;9.980;2023-07-08T00:38:27;18.17;;;16.47;;
8086;SDS011;4086;54.412;9.980;2023-07-08T00:40:57;16.83;;;15.23;;
8086;SDS011;4086;54.412;9.980;2023-07-08T00:43:28;14.23;;;12.83;;
8086;SDS011;4086;54.412;9.980;2023-07-08T00:46:01;15.57;;;14.27;;
8086;SDS011;4086;54.412;9.980;2023-07-08T00:48:32;16.70;;;15.20;;
8086;SDS011;4086;54.412;9.980;2023-07-08T00:51:00;15.60;;;14.27;;
8086;SDS011;4086;54.412;9.980;2023-07-08T00:53:28;15.43;;;13.93;;
8086;SDS011;4086;54.412;9.980;2023-07-08T00:56:06;15.80;;;14.50;;
8086;SDS011;4086;54.412;9.980;2023-07-08T00:58:36;14.57;;;13.27;;
8086;SDS011;4086;54.412;9.980;2023-07-08T01:01:05;18.27;;;16.40;;
8086;SDS011;4086;54.412;9.980;2023-07-08T01:03:33;16.30;;;14.80;;
8086;SDS011;4086;54.412;9.980;2023-07-08T01:06:02;15.17;;;13.83;;
8086;SDS011;4086;54.412;9.980;2023-07-08T01:08:31;16.43;;;14.93;;
8086;SDS011;4086;54.412;9.980;2023-07-08T01:10:59;15.20;;;13.70;;
8086;SDS011;4086;54.412;9.980;2023-07-08T01:13:27;17.33;;;15.60;;
8086;SDS011;4086;54.412;9.980;2023-07-08T01:15:55;15.77;;;14.40;;
8086;SDS011;4086;54.412;9.980;2023-07-08T01:18:22;16.60;;;15.10;;
8086;SDS011;4086;54.412;9.980;2023-07-08T01:20:49;15.90;;;14.50;;
8086;SDS011;4086;54.412;9.980;2023-07-08T01:23:21;15.70;;;14.10;;
8086;SDS011;4086;54.412;9.980;2023-07-08T01:25:48;16.77;;;15.27;;
8086;SDS011;4086;54.412;9.980;2023-07-08T01:28:14;16.40;;;14.90;;
8086;SDS011;4086;54.412;9.980;2023-07-08T01:30:41;17.13;;;15.53;;
8086;SDS011;4086;54.412;9.980;2023-07-08T01:33:12;17.70;;;15.97;;
8086;SDS011;4086;54.412;9.980;2023-07-08T01:35:42;15.27;;;13.97;;
8086;SDS011;4086;54.412;9.980;2023-07-08T01:38:10;15.40;;;13.90;;
8086;SDS011;4086;54.412;9.980;2023-07-08T01:40:46;16.00;;;14.53;;
8086;SDS011;4086;54.412;9.980;2023-07-08T01:43:14;15.70;;;14.20;;
8086;SDS011;4086;54.412;9.980;2023-07-08T01:45:42;14.23;;;12.93;;
8086;SDS011;4086;54.412;9.980;2023-07-08T01:48:10;15.43;;;14.03;;
8086;SDS011;4086;54.412;9.980;2023-07-08T01:50:39;16.13;;;14.47;;
8086;SDS011;4086;54.412;9.980;2023-07-08T01:53:08;17.70;;;14.33;;
8086;SDS011;4086;54.412;9.980;2023-07-08T01:55:38;14.33;;;13.07;;
8086;SDS011;4086;54.412;9.980;2023-07-08T01:58:05;13.90;;;12.60;;
8086;SDS011;4086;54.412;9.980;2023-07-08T02:00:31;14.10;;;12.90;;
8086;SDS011;4086;54.412;9.980;2023-07-08T02:02:57;13.93;;;12.63;;
8086;SDS011;4086;54.412;9.980;2023-07-08T02:05:24;12.97;;;11.87;;
8086;SDS011;4086;54.412;9.980;2023-07-08T02:07:50;15.67;;;14.27;;
8086;SDS011;4086;54.412;9.980;2023-07-08T02:10:16;15.13;;;13.70;;
8086;SDS011;4086;54.412;9.980;2023-07-08T02:12:44;14.60;;;13.30;;
8086;SDS011;4086;54.412;9.980;2023-07-08T02:15:11;14.07;;;12.87;;
8086;SDS011;4086;54.412;9.980;2023-07-08T02:17:37;15.70;;;14.40;;
8086;SDS011;4086;54.412;9.980;2023-07-08T02:20:04;16.27;;;14.87;;
8086;SDS011;4086;54.412;9.980;2023-07-08T02:22:31;14.90;;;13.43;;
8086;SDS011;4086;54.412;9.980;2023-07-08T02:24:57;15.10;;;13.80;;
8086;SDS011;4086;54.412;9.980;2023-07-08T02:27:24;14.97;;;13.53;;
8086;SDS011;4086;54.412;9.980;2023-07-08T02:29:51;16.23;;;14.73;;
8086;SDS011;4086;54.412;9.980;2023-07-08T02:32:18;18.23;;;16.43;;
8086;SDS011;4086;54.412;9.980;2023-07-08T02:34:45;18.80;;;17.10;;
8086;SDS011;4086;54.412;9.980;2023-07-08T02:37:11;18.80;;;17.00;;
8086;SDS011;4086;54.412;9.980;2023-07-08T02:39:38;17.53;;;15.83;;
8086;SDS011;4086;54.412;9.980;2023-07-08T02:42:04;16.00;;;14.60;;
8086;SDS011;4086;54.412;9.980;2023-07-08T02:44:31;20.33;;;17.00;;
8086;SDS011;4086;54.412;9.980;2023-07-08T02:46:58;16.37;;;14.97;;
8086;SDS011;4086;54.412;9.980;2023-07-08T02:49:25;16.53;;;15.03;;
8086;SDS011;4086;54.412;9.980;2023-07-08T02:51:51;18.07;;;16.47;;
8086;SDS011;4086;54.412;9.980;2023-07-08T02:54:17;16.87;;;15.30;;
8086;SDS011;4086;54.412;9.980;2023-07-08T02:56:44;18.73;;;17.13;;
8086;SDS011;4086;54.412;9.980;2023-07-08T02:59:10;16.73;;;15.23;;
8086;SDS011;4086;54.412;9.980;2023-07-08T03:01:36;18.93;;;16.97;;
8086;SDS011;4086;54.412;9.980;2023-07-08T03:04:07;18.77;;;17.03;;
8086;SDS011;4086;54.412;9.980;2023-07-08T03:06:37;17.93;;;16.33;;
8086;SDS011;4086;54.412;9.980;2023-07-08T03:09:04;18.97;;;17.20;;
8086;SDS011;4086;54.412;9.980;2023-07-08T03:11:30;16.87;;;15.27;;
8086;SDS011;4086;54.412;9.980;2023-07-08T03:13:56;16.93;;;15.33;;
8086;SDS011;4086;54.412;9.980;2023-07-08T03:16:23;17.87;;;16.13;;
8086;SDS011;4086;54.412;9.980;2023-07-08T03:18:49;19.17;;;17.27;;
8086;SDS011;4086;54.412;9.980;2023-07-08T03:21:17;20.60;;;18.67;;
8086;SDS011;4086;54.412;9.980;2023-07-08T03:23:44;19.30;;;17.40;;
8086;SDS011;4086;54.412;9.980;2023-07-08T03:26:11;19.30;;;17.50;;
8086;SDS011;4086;54.412;9.980;2023-07-08T03:28:39;19.00;;;17.30;;
8086;SDS011;4086;54.412;9.980;2023-07-08T03:31:07;20.17;;;18.27;;
8086;SDS011;4086;54.412;9.980;2023-07-08T03:33:34;20.33;;;18.53;;
8086;SDS011;4086;54.412;9.980;2023-07-08T03:36:00;17.80;;;16.10;;
8086;SDS011;4086;54.412;9.980;2023-07-08T03:38:28;16.53;;;15.03;;
8086;SDS011;4086;54.412;9.980;2023-07-08T03:40:55;17.27;;;15.57;;
8086;SDS011;4086;54.412;9.980;2023-07-08T03:43:22;17.20;;;15.57;;
8086;SDS011;4086;54.412;9.980;2023-07-08T03:45:48;16.37;;;14.87;;
8086;SDS011;4086;54.412;9.980;2023-07-08T03:48:15;18.87;;;17.17;;
8086;SDS011;4086;54.412;9.980;2023-07-08T03:50:41;20.93;;;18.97;;
8086;SDS011;4086;54.412;9.980;2023-07-08T03:53:08;19.27;;;17.37;;
8086;SDS011;4086;54.412;9.980;2023-07-08T03:55:36;20.83;;;18.93;;
8086;SDS011;4086;54.412;9.980;2023-07-08T03:58:02;18.83;;;17.03;;
8086;SDS011;4086;54.412;9.980;2023-07-08T04:00:29;18.50;;;16.80;;
8086;SDS011;4086;54.412;9.980;2023-07-08T04:02:55;19.17;;;17.43;;
8086;SDS011;4086;54.412;9.980;2023-07-08T04:05:22;17.07;;;15.53;;
8086;SDS011;4086;54.412;9.980;2023-07-08T04:07:49;18.40;;;16.80;;
8086;SDS011;4086;54.412;9.980;2023-07-08T04:10:15;16.40;;;15.00;;
8086;SDS011;4086;54.412;9.980;2023-07-08T04:12:44;18.83;;;17.10;;
8086;SDS011;4086;54.412;9.980;2023-07-08T04:15:10;16.77;;;15.27;;
8086;SDS011;4086;54.412;9.980;2023-07-08T04:17:39;19.10;;;17.40;;
8086;SDS011;4086;54.412;9.980;2023-07-08T04:20:08;19.67;;;17.97;;
8086;SDS011;4086;54.412;9.980;2023-07-08T04:22:35;19.60;;;17.63;;
8086;SDS011;4086;54.412;9.980;2023-07-08T04:25:02;17.53;;;15.93;;
8086;SDS011;4086;54.412;9.980;2023-07-08T04:27:30;19.00;;;17.27;;
8086;SDS011;4086;54.412;9.980;2023-07-08T04:29:58;16.30;;;14.87;;
8086;SDS011;4086;54.412;9.980;2023-07-08T04:32:24;18.10;;;16.50;;
8086;SDS011;4086;54.412;9.980;2023-07-08T04:34:51;17.10;;;15.60;;
8086;SDS011;4086;54.412;9.980;2023-07-08T04:37:18;19.70;;;17.90;;
8086;SDS011;4086;54.412;9.980;2023-07-08T04:39:45;16.10;;;14.70;;
8086;SDS011;4086;54.412;9.980;2023-07-08T04:42:11;19.67;;;17.87;;
8086;SDS011;4086;54.412;9.980;2023-07-08T04:44:42;18.83;;;16.93;;
8086;SDS011;4086;54.412;9.980;2023-07-08T04:47:10;18.27;;;16.60;;
8086;SDS011;4086;54.412;9.980;2023-07-08T04:49:38;18.47;;;16.73;;
8086;SDS011;4086;54.412;9.980;2023-07-08T04:52:08;18.97;;;17.27;;
8086;SDS011;4086;54.412;9.980;2023-07-08T04:54:35;17.83;;;16.27;;
8086;SDS011;4086;54.412;9.980;2023-07-08T04:57:01;17.37;;;15.77;;
8086;SDS011;4086;54.412;9.980;2023-07-08T04:59:28;19.93;;;18.03;;
8086;SDS011;4086;54.412;9.980;2023-07-08T05:01:59;17.27;;;15.73;;
8086;SDS011;4086;54.412;9.980;2023-07-08T05:04:27;19.03;;;17.43;;
8086;SDS011;4086;54.412;9.980;2023-07-08T05:06:53;21.60;;;19.43;;
8086;SDS011;4086;54.412;9.980;2023-07-08T05:09:19;21.93;;;19.87;;
8086;SDS011;4086;54.412;9.980;2023-07-08T05:11:47;20.67;;;18.87;;
8086;SDS011;4086;54.412;9.980;2023-07-08T05:14:13;21.17;;;19.03;;
8086;SDS011;4086;54.412;9.980;2023-07-08T05:16:40;17.10;;;15.50;;
8086;SDS011;4086;54.412;9.980;2023-07-08T05:19:06;17.13;;;15.50;;
8086;SDS011;4086;54.412;9.980;2023-07-08T05:21:34;19.13;;;17.37;;
8086;SDS011;4086;54.412;9.980;2023-07-08T05:24:00;19.10;;;17.27;;
8086;SDS011;4086;54.412;9.980;2023-07-08T05:26:27;16.43;;;14.93;;
8086;SDS011;4086;54.412;9.980;2023-07-08T05:28:53;17.07;;;15.40;;
8086;SDS011;4086;54.412;9.980;2023-07-08T05:31:20;14.97;;;13.47;;
8086;SDS011;4086;54.412;9.980;2023-07-08T05:33:46;14.67;;;13.27;;
8086;SDS011;4086;54.412;9.980;2023-07-08T05:36:13;14.20;;;12.90;;
8086;SDS011;4086;54.412;9.980;2023-07-08T05:38:40;14.20;;;12.80;;
8086;SDS011;4086;54.412;9.980;2023-07-08T05:41:07;12.80;;;11.77;;
8086;SDS011;4086;54.412;9.980;2023-07-08T05:43:33;10.67;;;9.60;;
8086;SDS011;4086;54.412;9.980;2023-07-08T05:45:59;11.43;;;10.43;;
8086;SDS011;4086;54.412;9.980;2023-07-08T05:48:27;13.37;;;12.00;;
8086;SDS011;4086;54.412;9.980;2023-07-08T05:50:54;12.00;;;10.80;;
8086;SDS011;4086;54.412;9.980;2023-07-08T05:53:21;11.43;;;10.43;;
8086;SDS011;4086;54.412;9.980;2023-07-08T05:55:49;11.37;;;10.37;;
8086;SDS011;4086;54.412;9.980;2023-07-08T05:58:16;10.87;;;9.87;;
8086;SDS011;4086;54.412;9.980;2023-07-08T06:00:42;12.77;;;11.63;;
8086;SDS011;4086;54.412;9.980;2023-07-08T06:03:09;10.47;;;9.50;;
8086;SDS011;4086;54.412;9.980;2023-07-08T06:05:36;10.57;;;9.57;;
8086;SDS011;4086;54.412;9.980;2023-07-08T06:08:02;8.87;;;8.17;;
8086;SDS011;4086;54.412;9.980;2023-07-08T06:10:29;8.63;;;7.90;;
8086;SDS011;4086;54.412;9.980;2023-07-08T06:12:57;8.07;;;7.27;;
8086;SDS011;4086;54.412;9.980;2023-07-08T06:15:23;7.77;;;6.97;;
8086;SDS011;4086;54.412;9.980;2023-07-08T06:17:49;7.20;;;6.60;;
8086;SDS011;4086;54.412;9.980;2023-07-08T06:20:16;6.77;;;6.13;;
8086;SDS011;4086;54.412;9.980;2023-07-08T06:22:42;6.73;;;6.10;;
8086;SDS011;4086;54.412;9.980;2023-07-08T06:25:09;7.37;;;6.67;;
8086;SDS011;4086;54.412;9.980;2023-07-08T06:27:35;6.83;;;5.90;;
8086;SDS011;4086;54.412;9.980;2023-07-08T06:30:03;6.53;;;5.93;;
8086;SDS011;4086;54.412;9.980;2023-07-08T06:32:30;7.50;;;6.80;;
8086;SDS011;4086;54.412;9.980;2023-07-08T06:34:57;7.00;;;6.37;;
8086;SDS011;4086;54.412;9.980;2023-07-08T06:37:23;7.00;;;6.43;;
8086;SDS011;4086;54.412;9.980;2023-07-08T06:39:49;6.17;;;5.63;;
8086;SDS011;4086;54.412;9.980;2023-07-08T06:42:16;6.13;;;5.60;;
8086;SDS011;4086;54.412;9.980;2023-07-08T06:44:42;6.03;;;5.47;;
8086;SDS011;4086;54.412;9.980;2023-07-08T06:47:16;5.80;;;5.20;;
8086;SDS011;4086;54.412;9.980;2023-07-08T06:49:42;5.57;;;5.00;;
8086;SDS011;4086;54.412;9.980;2023-07-08T06:52:09;5.80;;;5.27;;
8086;SDS011;4086;54.412;9.980;2023-07-08T06:54:35;5.83;;;5.33;;
8086;SDS011;4086;54.412;9.980;2023-07-08T06:57:02;6.10;;;5.57;;
8086;SDS011;4086;54.412;9.980;2023-07-08T06:59:28;5.63;;;5.13;;
8086;SDS011;4086;54.412;9.980;2023-07-08T07:01:55;5.60;;;5.20;;
8086;SDS011;4086;54.412;9.980;2023-07-08T07:04:22;5.73;;;5.17;;
8086;SDS011;4086;54.412;9.980;2023-07-08T07:06:49;6.10;;;5.50;;
8086;SDS011;4086;54.412;9.980;2023-07-08T07:09:15;5.93;;;5.33;;
8086;SDS011;4086;54.412;9.980;2023-07-08T07:11:41;6.60;;;5.50;;
8086;SDS011;4086;54.412;9.980;2023-07-08T07:14:08;5.27;;;4.83;;
8086;SDS011;4086;54.412;9.980;2023-07-08T07:16:34;5.70;;;5.20;;
8086;SDS011;4086;54.412;9.980;2023-07-08T07:19:01;5.70;;;5.13;;
8086;SDS011;4086;54.412;9.980;2023-07-08T07:21:28;9.30;;;6.17;;
8086;SDS011;4086;54.412;9.980;2023-07-08T07:23:55;7.93;;;5.73;;
8086;SDS011;4086;54.412;9.980;2023-07-08T07:26:21;5.37;;;4.87;;
8086;SDS011;4086;54.412;9.980;2023-07-08T07:28:48;6.83;;;6.03;;
8086;SDS011;4086;54.412;9.980;2023-07-08T07:31:14;5.80;;;5.20;;
8086;SDS011;4086;54.412;9.980;2023-07-08T07:33:40;5.90;;;5.30;;
8086;SDS011;4086;54.412;9.980;2023-07-08T07:36:07;8.70;;;6.30;;
8086;SDS011;4086;54.412;9.980;2023-07-08T07:38:34;6.50;;;5.83;;
8086;SDS011;4086;54.412;9.980;2023-07-08T07:41:01;5.43;;;4.93;;
8086;SDS011;4086;54.412;9.980;2023-07-08T07:43:32;5.80;;;4.87;;
8086;SDS011;4086;54.412;9.980;2023-07-08T07:45:58;9.10;;;4.77;;
8086;SDS011;4086;54.412;9.980;2023-07-08T07:48:25;7.07;;;5.07;;
8086;SDS011;4086;54.412;9.980;2023-07-08T07:50:51;8.60;;;4.90;;
8086;SDS011;4086;54.412;9.980;2023-07-08T07:53:17;4.93;;;4.47;;
8086;SDS011;4086;54.412;9.980;2023-07-08T07:55:45;4.57;;;4.17;;
8086;SDS011;4086;54.412;9.980;2023-07-08T07:58:11;4.57;;;4.13;;
8086;SDS011;4086;54.412;9.980;2023-07-08T08:00:38;5.37;;;3.80;;
8086;SDS011;4086;54.412;9.980;2023-07-08T08:03:04;4.43;;;4.03;;
8086;SDS011;4086;54.412;9.980;2023-07-08T08:05:31;4.67;;;4.10;;
8086;SDS011;4086;54.412;9.980;2023-07-08T08:07:58;4.53;;;4.13;;
8086;SDS011;4086;54.412;9.980;2023-07-08T08:10:24;4.30;;;3.80;;
8086;SDS011;4086;54.412;9.980;2023-07-08T08:12:52;6.40;;;4.83;;
8086;SDS011;4086;54.412;9.980;2023-07-08T08:15:18;4.97;;;3.80;;
8086;SDS011;4086;54.412;9.980;2023-07-08T08:17:45;4.83;;;3.90;;
8086;SDS011;4086;54.412;9.980;2023-07-08T08:20:14;4.20;;;3.63;;
8086;SDS011;4086;54.412;9.980;2023-07-08T08:22:40;4.13;;;3.73;;
8086;SDS011;4086;54.412;9.980;2023-07-08T08:25:07;5.70;;;4.50;;
8086;SDS011;4086;54.412;9.980;2023-07-08T08:27:34;7.23;;;4.47;;
8086;SDS011;4086;54.412;9.980;2023-07-08T08:30:02;4.57;;;3.90;;
8086;SDS011;4086;54.412;9.980;2023-07-08T08:32:30;4.70;;;4.20;;
8086;SDS011;4086;54.412;9.980;2023-07-08T08:34:57;4.43;;;4.03;;
8086;SDS011;4086;54.412;9.980;2023-07-08T08:37:23;4.33;;;3.40;;
8086;SDS011;4086;54.412;9.980;2023-07-08T08:39:49;5.60;;;4.37;;
8086;SDS011;4086;54.412;9.980;2023-07-08T08:42:16;5.07;;;3.70;;
8086;SDS011;4086;54.412;9.980;2023-07-08T08:44:45;4.90;;;3.33;;
8086;SDS011;4086;54.412;9.980;2023-07-08T08:47:16;4.33;;;3.27;;
8086;SDS011;4086;54.412;9.980;2023-07-08T08:49:50;5.03;;;3.85;;
8086;SDS011;4086;54.412;9.980;2023-07-08T08:52:20;4.28;;;3.83;;
8086;SDS011;4086;54.412;9.980;2023-07-08T08:54:46;4.00;;;3.70;;
8086;SDS011;4086;54.412;9.980;2023-07-08T08:57:19;4.95;;;3.90;;
8086;SDS011;4086;54.412;9.980;2023-07-08T08:59:56;4.75;;;3.78;;
8086;SDS011;4086;54.412;9.980;2023-07-08T09:02:27;4.25;;;3.85;;
8086;SDS011;4086;54.412;9.980;2023-07-08T09:04:56;6.32;;;4.63;;
8086;SDS011;4086;54.412;9.980;2023-07-08T09:07:24;4.50;;;3.72;;
8086;SDS011;4086;54.412;9.980;2023-07-08T09:09:53;5.13;;;4.32;;
8086;SDS011;4086;54.412;9.980;2023-07-08T09:12:25;4.88;;;4.00;;
8086;SDS011;4086;54.412;9.980;2023-07-08T09:14:52;4.22;;;3.88;;
8086;SDS011;4086;54.412;9.980;2023-07-08T09:17:20;4.82;;;3.47;;
8086;SDS011;4086;54.412;9.980;2023-07-08T09:19:52;3.85;;;3.55;;
8086;SDS011;4086;54.412;9.980;2023-07-08T09:22:25;4.38;;;3.97;;
8086;SDS011;4086;54.412;9.980;2023-07-08T09:24:58;5.53;;;4.22;;
8086;SDS011;4086;54.412;9.980;2023-07-08T09:27:25;3.88;;;3.45;;
8086;SDS011;4086;54.412;9.980;2023-07-08T09:29:52;3.80;;;3.50;;
8086;SDS011;4086;54.412;9.980;2023-07-08T09:32:19;4.10;;;3.67;;
8086;SDS011;4086;54.412;9.980;2023-07-08T09:34:49;3.70;;;3.40;;
8086;SDS011;4086;54.412;9.980;2023-07-08T09:37:20;5.78;;;3.65;;
8086;SDS011;4086;54.412;9.980;2023-07-08T09:39:51;4.20;;;3.30;;
8086;SDS011;4086;54.412;9.980;2023-07-08T09:42:19;3.90;;;3.60;;
8086;SDS011;4086;54.412;9.980;2023-07-08T09:44:47;4.65;;;3.78;;
8086;SDS011;4086;54.412;9.980;2023-07-08T09:47:19;4.30;;;3.45;;
8086;SDS011;4086;54.412;9.980;2023-07-08T09:49:47;6.90;;;3.80;;
8086;SDS011;4086;54.412;9.980;2023-07-08T09:52:15;4.45;;;3.35;;
8086;SDS011;4086;54.412;9.980;2023-07-08T09:54:42;3.35;;;3.05;;
8086;SDS011;4086;54.412;9.980;2023-07-08T09:57:11;4.57;;;3.47;;
8086;SDS011;4086;54.412;9.980;2023-07-08T09:59:39;4.82;;;4.00;;
8086;SDS011;4086;54.412;9.980;2023-07-08T10:02:27;4.72;;;3.92;;
8086;SDS011;4086;54.412;9.980;2023-07-08T10:04:56;3.97;;;3.60;;
8086;SDS011;4086;54.412;9.980;2023-07-08T10:07:25;3.70;;;3.40;;
8086;SDS011;4086;54.412;9.980;2023-07-08T10:09:54;4.75;;;3.80;;
8086;SDS011;4086;54.412;9.980;2023-07-08T10:12:23;7.55;;;3.40;;
8086;SDS011;4086;54.412;9.980;2023-07-08T10:14:50;5.15;;;3.53;;
8086;SDS011;4086;54.412;9.980;2023-07-08T10:17:19;3.85;;;3.55;;
8086;SDS011;4086;54.412;9.980;2023-07-08T10:19:46;4.45;;;3.38;;
8086;SDS011;4086;54.412;9.980;2023-07-08T10:22:16;3.88;;;3.50;;
8086;SDS011;4086;54.412;9.980;2023-07-08T10:24:55;4.03;;;3.30;;
8086;SDS011;4086;54.412;9.980;2023-07-08T10:27:31;4.05;;;3.15;;
8086;SDS011;4086;54.412;9.980;2023-07-08T10:30:07;4.05;;;3.70;;
8086;SDS011;4086;54.412;9.980;2023-07-08T10:32:42;6.32;;;3.28;;
8086;SDS011;4086;54.412;9.980;2023-07-08T10:35:12;4.97;;;3.30;;
8086;SDS011;4086;54.412;9.980;2023-07-08T10:37:44;3.63;;;3.03;;
8086;SDS011;4086;54.412;9.980;2023-07-08T10:40:21;4.20;;;2.95;;
8086;SDS011;4086;54.412;9.980;2023-07-08T10:42:59;3.25;;;2.95;;
8086;SDS011;4086;54.412;9.980;2023-07-08T10:45:37;4.13;;;3.08;;
8086;SDS011;4086;54.412;9.980;2023-07-08T10:48:13;3.00;;;2.80;;
8086;SDS011;4086;54.412;9.980;2023-07-08T10:50:51;3.88;;;3.08;;
8086;SDS011;4086;54.412;9.980;2023-07-08T10:53:26;2.90;;;2.53;;
8086;SDS011;4086;54.412;9.980;2023-07-08T10:56:04;5.00;;;3.13;;
8086;SDS011;4086;54.412;9.980;2023-07-08T10:58:39;3.20;;;3.00;;
8086;SDS011;4086;54.412;9.980;2023-07-08T11:01:18;3.85;;;2.95;;
8086;SDS011;4086;54.412;9.980;2023-07-08T11:06:48;5.22;;;3.22;;
8086;SDS011;4086;54.412;9.980;2023-07-08T11:09:18;3.20;;;2.90;;
8086;SDS011;4086;54.412;9.980;2023-07-08T11:11:51;3.22;;;2.97;;
8086;SDS011;4086;54.412;9.980;2023-07-08T11:14:22;5.30;;;3.22;;
8086;SDS011;4086;54.412;9.980;2023-07-08T11:16:51;3.25;;;3.05;;
8086;SDS011;4086;54.412;9.980;2023-07-08T11:19:23;6.10;;;2.90;;
8086;SDS011;4086;54.412;9.980;2023-07-08T11:21:51;3.38;;;2.97;;
8086;SDS011;4086;54.412;9.980;2023-07-08T11:24:21;3.78;;;3.35;;
8086;SDS011;4086;54.412;9.980;2023-07-08T11:26:53;3.58;;;3.03;;
8086;SDS011;4086;54.412;9.980;2023-07-08T11:29:22;2.95;;;2.75;;
8086;SDS011;4086;54.412;9.980;2023-07-08T11:31:51;4.65;;;3.00;;
8086;SDS011;4086;54.412;9.980;2023-07-08T11:34:19;5.38;;;2.92;;
8086;SDS011;4086;54.412;9.980;2023-07-08T11:36:46;5.35;;;3.20;;
8086;SDS011;4086;54.412;9.980;2023-07-08T11:39:25;2.88;;;2.67;;
8086;SDS011;4086;54.412;9.980;2023-07-08T11:41:55;4.88;;;3.00;;
8086;SDS011;4086;54.412;9.980;2023-07-08T11:44:30;4.00;;;3.20;;
8086;SDS011;4086;54.412;9.980;2023-07-08T11:46:56;3.70;;;3.15;;
8086;SDS011;4086;54.412;9.980;2023-07-08T11:49:23;4.30;;;3.08;;
8086;SDS011;4086;54.412;9.980;2023-07-08T11:51:50;3.28;;;2.97;;
8086;SDS011;4086;54.412;9.980;2023-07-08T11:54:19;4.88;;;3.00;;
8086;SDS011;4086;54.412;9.980;2023-07-08T11:56:47;4.55;;;2.80;;
8086;SDS011;4086;54.412;9.980;2023-07-08T11:59:17;3.33;;;3.03;;
8086;SDS011;4086;54.412;9.980;2023-07-08T12:01:51;2.92;;;2.72;;
8086;SDS011;4086;54.412;9.980;2023-07-08T12:04:26;4.35;;;2.80;;
8086;SDS011;4086;54.412;9.980;2023-07-08T12:07:10;4.18;;;2.80;;
8086;SDS011;4086;54.412;9.980;2023-07-08T12:09:39;3.80;;;2.92;;
8086;SDS011;4086;54.412;9.980;2023-07-08T12:12:14;3.33;;;2.60;;
8086;SDS011;4086;54.412;9.980;2023-07-08T12:14:45;3.80;;;2.85;;
8086;SDS011;4086;54.412;9.980;2023-07-08T12:17:12;4.32;;;2.90;;
8086;SDS011;4086;54.412;9.980;2023-07-08T12:19:39;3.13;;;2.92;;
8086;SDS011;4086;54.412;9.980;2023-07-08T12:22:07;3.05;;;2.80;;
8086;SDS011;4086;54.412;9.980;2023-07-08T12:24:34;3.50;;;2.72;;
8086;SDS011;4086;54.412;9.980;2023-07-08T12:27:00;3.58;;;2.58;;
8086;SDS011;4086;54.412;9.980;2023-07-08T12:29:28;2.67;;;2.47;;
8086;SDS011;4086;54.412;9.980;2023-07-08T12:31:56;2.90;;;2.70;;
8086;SDS011;4086;54.412;9.980;2023-07-08T12:34:22;4.25;;;2.90;;
8086;SDS011;4086;54.412;9.980;2023-07-08T12:36:51;4.93;;;3.22;;
8086;SDS011;4086;54.412;9.980;2023-07-08T12:39:17;2.80;;;2.60;;
8086;SDS011;4086;54.412;9.980;2023-07-08T12:41:44;4.60;;;2.97;;
8086;SDS011;4086;54.412;9.980;2023-07-08T12:44:14;3.42;;;2.65;;
8086;SDS011;4086;54.412;9.980;2023-07-08T12:46:45;2.95;;;2.63;;
8086;SDS011;4086;54.412;9.980;2023-07-08T12:49:14;2.92;;;2.58;;
8086;SDS011;4086;54.412;9.980;2023-07-08T12:51:41;2.78;;;2.58;;
8086;SDS011;4086;54.412;9.980;2023-07-08T12:54:09;4.03;;;2.58;;
8086;SDS011;4086;54.412;9.980;2023-07-08T12:56:36;2.80;;;2.60;;
8086;SDS011;4086;54.412;9.980;2023-07-08T12:59:03;3.88;;;2.90;;
8086;SDS011;4086;54.412;9.980;2023-07-08T13:01:30;2.90;;;2.70;;
8086;SDS011;4086;54.412;9.980;2023-07-08T13:03:59;3.50;;;3.00;;
8086;SDS011;4086;54.412;9.980;2023-07-08T13:06:29;3.55;;;2.90;;
8086;SDS011;4086;54.412;9.980;2023-07-08T13:08:57;4.45;;;2.75;;
8086;SDS011;4086;54.412;9.980;2023-07-08T13:11:27;3.05;;;2.85;;
8086;SDS011;4086;54.412;9.980;2023-07-08T13:13:55;4.95;;;2.83;;
8086;SDS011;4086;54.412;9.980;2023-07-08T13:16:23;5.65;;;2.60;;
8086;SDS011;4086;54.412;9.980;2023-07-08T13:18:50;2.72;;;2.22;;
8086;SDS011;4086;54.412;9.980;2023-07-08T13:21:17;3.15;;;2.85;;
8086;SDS011;4086;54.412;9.980;2023-07-08T13:23:45;3.25;;;2.50;;
8086;SDS011;4086;54.412;9.980;2023-07-08T13:26:12;3.00;;;2.70;;
8086;SDS011;4086;54.412;9.980;2023-07-08T13:28:40;2.78;;;2.50;;
8086;SDS011;4086;54.412;9.980;2023-07-08T13:31:13;3.42;;;2.60;;
8086;SDS011;4086;54.412;9.980;2023-07-08T13:33:44;5.18;;;2.53;;
8086;SDS011;4086;54.412;9.980;2023-07-08T13:36:11;2.65;;;2.45;;
8086;SDS011;4086;54.412;9.980;2023-07-08T13:38:39;2.80;;;2.40;;
8086;SDS011;4086;54.412;9.980;2023-07-08T13:41:07;2.50;;;2.30;;
8086;SDS011;4086;54.412;9.980;2023-07-08T13:43:35;2.50;;;2.30;;
8086;SDS011;4086;54.412;9.980;2023-07-08T13:46:02;3.33;;;2.30;;
8086;SDS011;4086;54.412;9.980;2023-07-08T13:48:30;2.60;;;2.40;;
8086;SDS011;4086;54.412;9.980;2023-07-08T13:51:01;2.30;;;2.20;;
8086;SDS011;4086;54.412;9.980;2023-07-08T13:53:43;2.47;;;2.28;;
8086;SDS011;4086;54.412;9.980;2023-07-08T13:56:14;2.72;;;2.53;;
8086;SDS011;4086;54.412;9.980;2023-07-08T13:58:42;3.13;;;2.92;;
8086;SDS011;4086;54.412;9.980;2023-07-08T14:01:10;2.60;;;2.40;;
8086;SDS011;4086;54.412;9.980;2023-07-08T14:03:41;2.85;;;2.53;;
8086;SDS011;4086;54.412;9.980;2023-07-08T14:06:11;2.60;;;2.38;;
8086;SDS011;4086;54.412;9.980;2023-07-08T14:08:39;3.35;;;2.80;;
8086;SDS011;4086;54.412;9.980;2023-07-08T14:11:06;4.45;;;2.95;;
8086;SDS011;4086;54.412;9.980;2023-07-08T14:13:34;3.00;;;2.80;;
8086;SDS011;4086;54.412;9.980;2023-07-08T14:16:00;3.15;;;2.85;;
8086;SDS011;4086;54.412;9.980;2023-07-08T14:18:28;3.08;;;2.70;;
8086;SDS011;4086;54.412;9.980;2023-07-08T14:20:55;4.95;;;2.58;;
8086;SDS011;4086;54.412;9.980;2023-07-08T14:23:21;2.75;;;2.55;;
8086;SDS011;4086;54.412;9.980;2023-07-08T14:25:47;4.40;;;2.90;;
8086;SDS011;4086;54.412;9.980;2023-07-08T14:28:14;3.30;;;3.00;;
8086;SDS011;4086;54.412;9.980;2023-07-08T14:30:43;3.65;;;2.65;;
8086;SDS011;4086;54.412;9.980;2023-07-08T14:33:10;3.17;;;2.88;;
8086;SDS011;4086;54.412;9.980;2023-07-08T14:35:38;3.90;;;2.97;;
8086;SDS011;4086;54.412;9.980;2023-07-08T14:38:07;3.70;;;2.63;;
8086;SDS011;4086;54.412;9.980;2023-07-08T14:40:36;3.08;;;2.78;;
8086;SDS011;4086;54.412;9.980;2023-07-08T14:43:04;5.03;;;3.03;;
8086;SDS011;4086;54.412;9.980;2023-07-08T14:45:32;2.97;;;2.70;;
8086;SDS011;4086;54.412;9.980;2023-07-08T14:48:07;2.80;;;2.60;;
8086;SDS011;4086;54.412;9.980;2023-07-08T14:50:34;3.17;;;2.85;;
8086;SDS011;4086;54.412;9.980;2023-07-08T14:53:00;4.38;;;2.78;;
8086;SDS011;4086;54.412;9.980;2023-07-08T14:55:27;2.72;;;2.53;;
8086;SDS011;4086;54.412;9.980;2023-07-08T14:57:53;2.90;;;2.65;;
8086;SDS011;4086;54.412;9.980;2023-07-08T15:00:21;2.80;;;2.60;;
8086;SDS011;4086;54.412;9.980;2023-07-08T15:02:48;3.15;;;2.85;;
8086;SDS011;4086;54.412;9.980;2023-07-08T15:05:18;3.08;;;2.80;;
8086;SDS011;4086;54.412;9.980;2023-07-08T15:07:48;2.92;;;2.72;;
8086;SDS011;4086;54.412;9.980;2023-07-08T15:10:15;2.90;;;2.70;;
8086;SDS011;4086;54.412;9.980;2023-07-08T15:12:42;2.72;;;2.53;;
8086;SDS011;4086;54.412;9.980;2023-07-08T15:15:13;3.63;;;2.80;;